Terminal Aerodrome Forecast
Issued by NWS

Home | Current Version | Previous Version | Text Only | Print | Product List | Glossary On
Versions: 1 2 3 4 5 6 7 8 9 10 11 12 13 14 15 16 17
675
FTUS42 KJAX 131720
TAFVQQ
TAF
KVQQ 131720Z 1318/1418 34008G14KT P6SM SKC
     FM132300 36004KT P6SM SKC
     FM141400 02008KT P6SM BKN035=

USA.gov is the U.S. government's official web portal to all federal, state and local government web resources and services.